sensor_id;sensor_type;location;lat;lon;timestamp;temperature;humidity
31967;DHT22;18496;52.042;6.812;2023-04-07T00:01:15;11.10;99.90
31967;DHT22;18496;52.042;6.812;2023-04-07T00:03:22;11.10;99.90
31967;DHT22;18496;52.042;6.812;2023-04-07T00:05:26;11.10;99.90
31967;DHT22;18496;52.042;6.812;2023-04-07T00:07:35;11.20;99.90
31967;DHT22;18496;52.042;6.812;2023-04-07T00:09:39;11.20;99.90
31967;DHT22;18496;52.042;6.812;2023-04-07T00:11:43;11.10;99.90
31967;DHT22;18496;52.042;6.812;2023-04-07T00:13:46;11.00;99.90
31967;DHT22;18496;52.042;6.812;2023-04-07T00:15:50;11.00;99.90
31967;DHT22;18496;52.042;6.812;2023-04-07T00:17:54;11.00;99.90
31967;DHT22;18496;52.042;6.812;2023-04-07T00:20:01;11.10;99.90
31967;DHT22;18496;52.042;6.812;2023-04-07T00:22:05;11.10;99.90
31967;DHT22;18496;52.042;6.812;2023-04-07T00:24:09;11.10;99.90
31967;DHT22;18496;52.042;6.812;2023-04-07T00:26:13;11.10;99.90
31967;DHT22;18496;52.042;6.812;2023-04-07T00:28:20;11.00;99.90
31967;DHT22;18496;52.042;6.812;2023-04-07T00:30:24;11.00;99.90
31967;DHT22;18496;52.042;6.812;2023-04-07T00:32:29;11.10;99.90
31967;DHT22;18496;52.042;6.812;2023-04-07T00:34:35;11.10;99.90
31967;DHT22;18496;52.042;6.812;2023-04-07T00:36:39;11.10;99.90
31967;DHT22;18496;52.042;6.812;2023-04-07T00:38:43;11.10;99.90
31967;DHT22;18496;52.042;6.812;2023-04-07T00:40:47;11.10;99.90
31967;DHT22;18496;52.042;6.812;2023-04-07T00:42:54;11.10;99.90
31967;DHT22;18496;52.042;6.812;2023-04-07T00:45:01;11.20;99.90
31967;DHT22;18496;52.042;6.812;2023-04-07T00:47:05;11.20;99.90
31967;DHT22;18496;52.042;6.812;2023-04-07T00:49:11;11.20;99.90
31967;DHT22;18496;52.042;6.812;2023-04-07T00:51:20;11.20;99.90
31967;DHT22;18496;52.042;6.812;2023-04-07T00:53:25;11.20;99.90
31967;DHT22;18496;52.042;6.812;2023-04-07T00:55:28;11.20;99.90
31967;DHT22;18496;52.042;6.812;2023-04-07T00:57:38;11.20;99.90
31967;DHT22;18496;52.042;6.812;2023-04-07T00:59:43;11.20;99.90
31967;DHT22;18496;52.042;6.812;2023-04-07T01:02:15;11.20;99.90
31967;DHT22;18496;52.042;6.812;2023-04-07T01:04:32;11.20;99.90
31967;DHT22;18496;52.042;6.812;2023-04-07T01:06:39;11.10;99.90
31967;DHT22;18496;52.042;6.812;2023-04-07T01:09:00;11.10;99.90
31967;DHT22;18496;52.042;6.812;2023-04-07T01:13:59;11.10;99.90
31967;DHT22;18496;52.042;6.812;2023-04-07T01:16:49;11.10;99.90
31967;DHT22;18496;52.042;6.812;2023-04-07T01:19:15;11.10;99.90
31967;DHT22;18496;52.042;6.812;2023-04-07T01:21:26;11.20;99.90
31967;DHT22;18496;52.042;6.812;2023-04-07T01:26:19;11.20;99.90
31967;DHT22;18496;52.042;6.812;2023-04-07T01:31:16;11.20;99.90
31967;DHT22;18496;52.042;6.812;2023-04-07T01:33:27;11.20;99.90
31967;DHT22;18496;52.042;6.812;2023-04-07T01:35:38;11.10;99.90
31967;DHT22;18496;52.042;6.812;2023-04-07T01:37:43;11.10;99.90
31967;DHT22;18496;52.042;6.812;2023-04-07T01:39:51;11.10;99.90
31967;DHT22;18496;52.042;6.812;2023-04-07T01:41:56;11.10;99.90
31967;DHT22;18496;52.042;6.812;2023-04-07T01:44:02;11.10;99.90
31967;DHT22;18496;52.042;6.812;2023-04-07T01:46:09;11.10;99.90
31967;DHT22;18496;52.042;6.812;2023-04-07T01:48:21;11.20;99.90
31967;DHT22;18496;52.042;6.812;2023-04-07T01:50:31;11.20;99.90
31967;DHT22;18496;52.042;6.812;2023-04-07T01:52:46;11.20;99.90
31967;DHT22;18496;52.042;6.812;2023-04-07T01:54:52;11.20;99.90
31967;DHT22;18496;52.042;6.812;2023-04-07T01:56:56;11.20;99.90
31967;DHT22;18496;52.042;6.812;2023-04-07T01:59:04;11.20;99.90
31967;DHT22;18496;52.042;6.812;2023-04-07T02:01:12;11.20;99.90
31967;DHT22;18496;52.042;6.812;2023-04-07T02:03:23;11.30;99.90
31967;DHT22;18496;52.042;6.812;2023-04-07T02:05:37;11.30;99.90
31967;DHT22;18496;52.042;6.812;2023-04-07T02:09:51;11.30;99.90
31967;DHT22;18496;52.042;6.812;2023-04-07T02:12:00;11.30;99.90
31967;DHT22;18496;52.042;6.812;2023-04-07T02:14:22;11.30;99.90
31967;DHT22;18496;52.042;6.812;2023-04-07T02:16:38;11.30;99.90
31967;DHT22;18496;52.042;6.812;2023-04-07T02:18:47;11.30;99.90
31967;DHT22;18496;52.042;6.812;2023-04-07T02:20:59;11.30;99.90
31967;DHT22;18496;52.042;6.812;2023-04-07T02:23:08;11.30;99.90
31967;DHT22;18496;52.042;6.812;2023-04-07T02:25:26;11.30;99.90
31967;DHT22;18496;52.042;6.812;2023-04-07T02:27:31;11.30;99.90
31967;DHT22;18496;52.042;6.812;2023-04-07T02:29:37;11.30;99.90
31967;DHT22;18496;52.042;6.812;2023-04-07T02:31:44;11.30;99.90
31967;DHT22;18496;52.042;6.812;2023-04-07T02:33:48;11.40;99.90
31967;DHT22;18496;52.042;6.812;2023-04-07T02:36:02;11.30;99.90
31967;DHT22;18496;52.042;6.812;2023-04-07T02:38:06;11.30;99.90
31967;DHT22;18496;52.042;6.812;2023-04-07T02:40:12;11.30;99.90
31967;DHT22;18496;52.042;6.812;2023-04-07T02:42:16;11.30;99.90
31967;DHT22;18496;52.042;6.812;2023-04-07T02:44:20;11.30;99.90
31967;DHT22;18496;52.042;6.812;2023-04-07T02:46:24;11.30;99.90
31967;DHT22;18496;52.042;6.812;2023-04-07T02:48:29;11.20;99.90
31967;DHT22;18496;52.042;6.812;2023-04-07T02:50:33;11.30;99.90
31967;DHT22;18496;52.042;6.812;2023-04-07T02:52:45;11.30;99.90
31967;DHT22;18496;52.042;6.812;2023-04-07T02:54:59;11.30;99.90
31967;DHT22;18496;52.042;6.812;2023-04-07T02:57:04;11.30;99.90
31967;DHT22;18496;52.042;6.812;2023-04-07T02:59:19;11.30;99.90
31967;DHT22;18496;52.042;6.812;2023-04-07T03:01:32;11.30;99.90
31967;DHT22;18496;52.042;6.812;2023-04-07T03:03:37;11.30;99.90
31967;DHT22;18496;52.042;6.812;2023-04-07T03:05:52;11.20;99.90
31967;DHT22;18496;52.042;6.812;2023-04-07T03:07:56;11.20;99.90
31967;DHT22;18496;52.042;6.812;2023-04-07T03:10:06;11.20;99.90
31967;DHT22;18496;52.042;6.812;2023-04-07T03:12:10;11.20;99.90
31967;DHT22;18496;52.042;6.812;2023-04-07T03:14:14;11.20;99.90
31967;DHT22;18496;52.042;6.812;2023-04-07T03:16:26;11.20;99.90
31967;DHT22;18496;52.042;6.812;2023-04-07T03:18:42;11.20;99.90
31967;DHT22;18496;52.042;6.812;2023-04-07T03:20:49;11.20;99.90
31967;DHT22;18496;52.042;6.812;2023-04-07T03:22:55;11.20;99.90
31967;DHT22;18496;52.042;6.812;2023-04-07T03:25:04;11.20;99.90
31967;DHT22;18496;52.042;6.812;2023-04-07T03:27:08;11.20;99.90
31967;DHT22;18496;52.042;6.812;2023-04-07T03:29:19;11.20;99.90
31967;DHT22;18496;52.042;6.812;2023-04-07T03:31:22;11.20;99.90
31967;DHT22;18496;52.042;6.812;2023-04-07T03:33:29;11.20;99.90
31967;DHT22;18496;52.042;6.812;2023-04-07T03:35:32;11.20;99.90
31967;DHT22;18496;52.042;6.812;2023-04-07T03:37:36;11.20;99.90
31967;DHT22;18496;52.042;6.812;2023-04-07T03:39:42;11.20;99.90
31967;DHT22;18496;52.042;6.812;2023-04-07T03:42:00;11.20;99.90
31967;DHT22;18496;52.042;6.812;2023-04-07T03:44:07;11.20;99.90
31967;DHT22;18496;52.042;6.812;2023-04-07T03:46:14;11.20;99.90
31967;DHT22;18496;52.042;6.812;2023-04-07T03:48:20;11.10;99.90
31967;DHT22;18496;52.042;6.812;2023-04-07T03:50:34;11.10;99.90
31967;DHT22;18496;52.042;6.812;2023-04-07T03:52:49;11.10;99.90
31967;DHT22;18496;52.042;6.812;2023-04-07T03:55:05;11.10;99.90
31967;DHT22;18496;52.042;6.812;2023-04-07T03:57:09;11.10;99.90
31967;DHT22;18496;52.042;6.812;2023-04-07T03:59:19;11.10;99.90
31967;DHT22;18496;52.042;6.812;2023-04-07T04:01:31;11.00;99.90
31967;DHT22;18496;52.042;6.812;2023-04-07T04:03:41;11.10;99.90
31967;DHT22;18496;52.042;6.812;2023-04-07T04:05:56;11.10;99.90
31967;DHT22;18496;52.042;6.812;2023-04-07T04:08:05;11.10;99.90
31967;DHT22;18496;52.042;6.812;2023-04-07T04:10:12;11.10;99.90
31967;DHT22;18496;52.042;6.812;2023-04-07T04:12:20;11.10;99.90
31967;DHT22;18496;52.042;6.812;2023-04-07T04:14:39;11.10;99.90
31967;DHT22;18496;52.042;6.812;2023-04-07T04:16:47;11.10;99.90
31967;DHT22;18496;52.042;6.812;2023-04-07T04:19:02;11.10;99.90
31967;DHT22;18496;52.042;6.812;2023-04-07T04:21:08;11.10;99.90
31967;DHT22;18496;52.042;6.812;2023-04-07T04:23:14;11.10;99.90
31967;DHT22;18496;52.042;6.812;2023-04-07T04:25:19;11.10;99.90
31967;DHT22;18496;52.042;6.812;2023-04-07T04:27:27;11.10;99.90
31967;DHT22;18496;52.042;6.812;2023-04-07T04:29:39;11.10;99.90
31967;DHT22;18496;52.042;6.812;2023-04-07T04:31:46;11.10;99.90
31967;DHT22;18496;52.042;6.812;2023-04-07T04:33:51;11.10;99.90
31967;DHT22;18496;52.042;6.812;2023-04-07T04:35:55;11.10;99.90
31967;DHT22;18496;52.042;6.812;2023-04-07T04:38:00;11.00;99.90
31967;DHT22;18496;52.042;6.812;2023-04-07T04:40:05;11.00;99.90
31967;DHT22;18496;52.042;6.812;2023-04-07T04:42:11;11.00;99.90
31967;DHT22;18496;52.042;6.812;2023-04-07T04:44:14;11.00;99.90
31967;DHT22;18496;52.042;6.812;2023-04-07T04:46:21;11.00;99.90
31967;DHT22;18496;52.042;6.812;2023-04-07T04:48:26;11.00;99.90
31967;DHT22;18496;52.042;6.812;2023-04-07T04:50:30;11.00;99.90
31967;DHT22;18496;52.042;6.812;2023-04-07T04:52:34;11.10;99.90
31967;DHT22;18496;52.042;6.812;2023-04-07T04:54:38;11.10;99.90
31967;DHT22;18496;52.042;6.812;2023-04-07T04:56:42;11.10;99.90
31967;DHT22;18496;52.042;6.812;2023-04-07T04:58:47;11.10;99.90
31967;DHT22;18496;52.042;6.812;2023-04-07T05:01:14;11.10;99.90
31967;DHT22;18496;52.042;6.812;2023-04-07T05:03:23;11.10;99.90
31967;DHT22;18496;52.042;6.812;2023-04-07T05:05:31;11.10;99.90
31967;DHT22;18496;52.042;6.812;2023-04-07T05:07:34;11.10;99.90
31967;DHT22;18496;52.042;6.812;2023-04-07T05:09:38;11.10;99.90
31967;DHT22;18496;52.042;6.812;2023-04-07T05:11:43;11.10;99.90
31967;DHT22;18496;52.042;6.812;2023-04-07T05:13:46;11.10;99.90
31967;DHT22;18496;52.042;6.812;2023-04-07T05:15:50;11.10;99.90
31967;DHT22;18496;52.042;6.812;2023-04-07T05:17:55;11.10;99.90
31967;DHT22;18496;52.042;6.812;2023-04-07T05:20:03;11.20;99.90
31967;DHT22;18496;52.042;6.812;2023-04-07T05:22:12;11.20;99.90
31967;DHT22;18496;52.042;6.812;2023-04-07T05:24:27;11.10;99.90
31967;DHT22;18496;52.042;6.812;2023-04-07T05:26:34;11.10;99.90
31967;DHT22;18496;52.042;6.812;2023-04-07T05:28:40;11.10;99.90
31967;DHT22;18496;52.042;6.812;2023-04-07T05:30:51;11.10;99.90
31967;DHT22;18496;52.042;6.812;2023-04-07T05:32:56;11.10;99.90
31967;DHT22;18496;52.042;6.812;2023-04-07T05:35:13;11.10;99.90
31967;DHT22;18496;52.042;6.812;2023-04-07T05:37:24;11.10;99.90
31967;DHT22;18496;52.042;6.812;2023-04-07T05:39:28;11.10;99.90
31967;DHT22;18496;52.042;6.812;2023-04-07T05:41:33;11.10;99.90
31967;DHT22;18496;52.042;6.812;2023-04-07T05:43:39;11.10;99.90
31967;DHT22;18496;52.042;6.812;2023-04-07T05:45:43;11.10;99.90
31967;DHT22;18496;52.042;6.812;2023-04-07T05:47:47;11.10;99.90
31967;DHT22;18496;52.042;6.812;2023-04-07T05:49:56;11.10;99.90
31967;DHT22;18496;52.042;6.812;2023-04-07T05:52:00;11.10;99.90
31967;DHT22;18496;52.042;6.812;2023-04-07T05:54:06;11.10;99.90
31967;DHT22;18496;52.042;6.812;2023-04-07T05:56:09;11.10;99.90
31967;DHT22;18496;52.042;6.812;2023-04-07T05:58:20;11.10;99.90
31967;DHT22;18496;52.042;6.812;2023-04-07T06:00:27;11.10;99.90
31967;DHT22;18496;52.042;6.812;2023-04-07T06:02:46;11.10;99.90
31967;DHT22;18496;52.042;6.812;2023-04-07T06:04:54;11.10;99.90
31967;DHT22;18496;52.042;6.812;2023-04-07T06:06:58;11.10;99.90
31967;DHT22;18496;52.042;6.812;2023-04-07T06:09:03;11.10;99.90
31967;DHT22;18496;52.042;6.812;2023-04-07T06:11:08;11.10;99.90
31967;DHT22;18496;52.042;6.812;2023-04-07T06:13:12;11.10;99.90
31967;DHT22;18496;52.042;6.812;2023-04-07T06:15:15;11.10;99.90
31967;DHT22;18496;52.042;6.812;2023-04-07T06:17:20;11.10;99.90
31967;DHT22;18496;52.042;6.812;2023-04-07T06:19:24;11.10;99.90
31967;DHT22;18496;52.042;6.812;2023-04-07T06:21:30;11.10;99.90
31967;DHT22;18496;52.042;6.812;2023-04-07T06:23:34;11.10;99.90
31967;DHT22;18496;52.042;6.812;2023-04-07T06:25:38;11.20;99.90
31967;DHT22;18496;52.042;6.812;2023-04-07T06:27:41;11.20;99.90
31967;DHT22;18496;52.042;6.812;2023-04-07T06:29:45;11.20;99.90
31967;DHT22;18496;52.042;6.812;2023-04-07T06:31:49;11.10;99.90
31967;DHT22;18496;52.042;6.812;2023-04-07T06:33:52;11.20;99.90
31967;DHT22;18496;52.042;6.812;2023-04-07T06:35:56;11.20;99.90
31967;DHT22;18496;52.042;6.812;2023-04-07T06:38:00;11.20;99.90
31967;DHT22;18496;52.042;6.812;2023-04-07T06:40:06;11.20;99.90
31967;DHT22;18496;52.042;6.812;2023-04-07T06:42:10;11.20;99.90
31967;DHT22;18496;52.042;6.812;2023-04-07T06:44:23;11.20;99.90
31967;DHT22;18496;52.042;6.812;2023-04-07T06:46:27;11.20;99.90
31967;DHT22;18496;52.042;6.812;2023-04-07T06:48:30;11.20;99.90
31967;DHT22;18496;52.042;6.812;2023-04-07T06:50:34;11.20;99.90
31967;DHT22;18496;52.042;6.812;2023-04-07T06:52:38;11.20;99.90
31967;DHT22;18496;52.042;6.812;2023-04-07T06:54:41;11.20;99.90
31967;DHT22;18496;52.042;6.812;2023-04-07T06:56:46;11.20;99.90
31967;DHT22;18496;52.042;6.812;2023-04-07T06:58:49;11.20;99.90
31967;DHT22;18496;52.042;6.812;2023-04-07T07:00:53;11.20;99.90
31967;DHT22;18496;52.042;6.812;2023-04-07T07:02:57;11.20;99.90
31967;DHT22;18496;52.042;6.812;2023-04-07T07:05:01;11.30;99.90
31967;DHT22;18496;52.042;6.812;2023-04-07T07:07:06;11.30;99.90
31967;DHT22;18496;52.042;6.812;2023-04-07T07:09:09;11.30;99.90
31967;DHT22;18496;52.042;6.812;2023-04-07T07:11:13;11.30;99.90
31967;DHT22;18496;52.042;6.812;2023-04-07T07:13:18;11.30;99.90
31967;DHT22;18496;52.042;6.812;2023-04-07T07:15:22;11.30;99.90
31967;DHT22;18496;52.042;6.812;2023-04-07T07:17:26;11.30;99.90
31967;DHT22;18496;52.042;6.812;2023-04-07T07:19:30;11.30;99.90
31967;DHT22;18496;52.042;6.812;2023-04-07T07:21:34;11.30;99.90
31967;DHT22;18496;52.042;6.812;2023-04-07T07:23:38;11.30;99.90
31967;DHT22;18496;52.042;6.812;2023-04-07T07:25:42;11.30;99.90
31967;DHT22;18496;52.042;6.812;2023-04-07T07:27:45;11.40;99.90
31967;DHT22;18496;52.042;6.812;2023-04-07T07:29:49;11.40;99.90
31967;DHT22;18496;52.042;6.812;2023-04-07T07:31:53;11.40;99.90
31967;DHT22;18496;52.042;6.812;2023-04-07T07:33:56;11.40;99.90
31967;DHT22;18496;52.042;6.812;2023-04-07T07:36:00;11.40;99.90
31967;DHT22;18496;52.042;6.812;2023-04-07T07:38:04;11.40;99.90
31967;DHT22;18496;52.042;6.812;2023-04-07T07:40:07;11.50;99.90
31967;DHT22;18496;52.042;6.812;2023-04-07T07:42:11;11.40;99.90
31967;DHT22;18496;52.042;6.812;2023-04-07T07:44:15;11.50;99.90
31967;DHT22;18496;52.042;6.812;2023-04-07T07:46:18;11.50;99.90
31967;DHT22;18496;52.042;6.812;2023-04-07T07:48:22;11.50;99.90
31967;DHT22;18496;52.042;6.812;2023-04-07T07:50:26;11.40;99.90
31967;DHT22;18496;52.042;6.812;2023-04-07T07:52:29;11.50;99.90
31967;DHT22;18496;52.042;6.812;2023-04-07T07:54:33;11.50;99.90
31967;DHT22;18496;52.042;6.812;2023-04-07T07:56:37;11.50;99.90
31967;DHT22;18496;52.042;6.812;2023-04-07T07:58:40;11.50;99.90
31967;DHT22;18496;52.042;6.812;2023-04-07T08:00:44;11.50;99.90
31967;DHT22;18496;52.042;6.812;2023-04-07T08:02:48;11.50;99.90
31967;DHT22;18496;52.042;6.812;2023-04-07T08:04:52;11.50;99.90
31967;DHT22;18496;52.042;6.812;2023-04-07T08:06:55;11.50;99.90
31967;DHT22;18496;52.042;6.812;2023-04-07T08:08:59;11.50;99.90
31967;DHT22;18496;52.042;6.812;2023-04-07T08:11:03;11.50;99.90
31967;DHT22;18496;52.042;6.812;2023-04-07T08:13:07;11.60;99.90
31967;DHT22;18496;52.042;6.812;2023-04-07T08:15:10;11.50;99.90
31967;DHT22;18496;52.042;6.812;2023-04-07T08:17:14;11.60;99.90
31967;DHT22;18496;52.042;6.812;2023-04-07T08:19:18;11.60;99.90
31967;DHT22;18496;52.042;6.812;2023-04-07T08:21:22;11.60;99.90
31967;DHT22;18496;52.042;6.812;2023-04-07T08:23:26;11.60;99.90
31967;DHT22;18496;52.042;6.812;2023-04-07T08:25:29;11.60;99.90
31967;DHT22;18496;52.042;6.812;2023-04-07T08:27:33;11.60;99.90
31967;DHT22;18496;52.042;6.812;2023-04-07T08:29:37;11.60;99.90
31967;DHT22;18496;52.042;6.812;2023-04-07T08:31:40;11.60;99.90
31967;DHT22;18496;52.042;6.812;2023-04-07T08:33:44;11.60;99.90
31967;DHT22;18496;52.042;6.812;2023-04-07T08:35:49;11.60;99.90
31967;DHT22;18496;52.042;6.812;2023-04-07T08:37:53;11.60;99.90
31967;DHT22;18496;52.042;6.812;2023-04-07T08:39:56;11.60;99.90
31967;DHT22;18496;52.042;6.812;2023-04-07T08:42:00;11.70;99.90
31967;DHT22;18496;52.042;6.812;2023-04-07T08:44:06;11.70;99.90
31967;DHT22;18496;52.042;6.812;2023-04-07T08:46:10;11.60;99.90
31967;DHT22;18496;52.042;6.812;2023-04-07T08:48:17;11.70;99.90
31967;DHT22;18496;52.042;6.812;2023-04-07T08:50:25;11.60;99.90
31967;DHT22;18496;52.042;6.812;2023-04-07T08:52:34;11.60;99.90
31967;DHT22;18496;52.042;6.812;2023-04-07T08:54:42;11.60;99.90
31967;DHT22;18496;52.042;6.812;2023-04-07T08:56:45;11.60;99.90
31967;DHT22;18496;52.042;6.812;2023-04-07T08:58:50;11.60;99.90
31967;DHT22;18496;52.042;6.812;2023-04-07T09:00:54;11.70;99.90
31967;DHT22;18496;52.042;6.812;2023-04-07T09:02:59;11.60;99.90
31967;DHT22;18496;52.042;6.812;2023-04-07T09:05:05;11.70;99.90
31967;DHT22;18496;52.042;6.812;2023-04-07T09:07:09;11.70;99.90
31967;DHT22;18496;52.042;6.812;2023-04-07T09:09:12;11.70;99.90
31967;DHT22;18496;52.042;6.812;2023-04-07T09:11:16;11.70;99.90
31967;DHT22;18496;52.042;6.812;2023-04-07T09:13:20;11.70;99.90
31967;DHT22;18496;52.042;6.812;2023-04-07T09:15:24;11.70;99.90
31967;DHT22;18496;52.042;6.812;2023-04-07T09:17:28;11.80;99.90
31967;DHT22;18496;52.042;6.812;2023-04-07T09:19:32;11.80;99.90
31967;DHT22;18496;52.042;6.812;2023-04-07T09:21:46;11.80;99.90
31967;DHT22;18496;52.042;6.812;2023-04-07T09:23:51;11.80;99.90
31967;DHT22;18496;52.042;6.812;2023-04-07T09:25:54;11.80;99.90
31967;DHT22;18496;52.042;6.812;2023-04-07T09:28:03;11.80;99.90
31967;DHT22;18496;52.042;6.812;2023-04-07T09:30:13;11.80;99.90
31967;DHT22;18496;52.042;6.812;2023-04-07T09:32:33;11.80;99.90
31967;DHT22;18496;52.042;6.812;2023-04-07T09:34:40;11.80;99.90
31967;DHT22;18496;52.042;6.812;2023-04-07T09:36:43;11.70;99.90
31967;DHT22;18496;52.042;6.812;2023-04-07T09:38:47;11.80;99.90
31967;DHT22;18496;52.042;6.812;2023-04-07T09:40:53;11.80;99.90
31967;DHT22;18496;52.042;6.812;2023-04-07T09:43:14;11.80;99.90
31967;DHT22;18496;52.042;6.812;2023-04-07T09:45:26;11.90;99.90
31967;DHT22;18496;52.042;6.812;2023-04-07T09:47:31;11.90;99.90
31967;DHT22;18496;52.042;6.812;2023-04-07T09:49:52;11.90;99.90
31967;DHT22;18496;52.042;6.812;2023-04-07T09:52:03;12.00;99.90
31967;DHT22;18496;52.042;6.812;2023-04-07T09:54:10;12.00;99.90
31967;DHT22;18496;52.042;6.812;2023-04-07T09:56:18;12.00;99.90
31967;DHT22;18496;52.042;6.812;2023-04-07T09:58:22;12.10;99.90
31967;DHT22;18496;52.042;6.812;2023-04-07T10:00:26;12.10;99.90
31967;DHT22;18496;52.042;6.812;2023-04-07T10:02:30;12.10;99.90
31967;DHT22;18496;52.042;6.812;2023-04-07T10:04:34;12.10;99.90
31967;DHT22;18496;52.042;6.812;2023-04-07T10:06:40;12.10;99.90
31967;DHT22;18496;52.042;6.812;2023-04-07T10:08:45;12.20;99.90
31967;DHT22;18496;52.042;6.812;2023-04-07T10:10:49;12.10;99.90
31967;DHT22;18496;52.042;6.812;2023-04-07T10:12:55;12.20;99.90
31967;DHT22;18496;52.042;6.812;2023-04-07T10:14:59;12.20;99.90
31967;DHT22;18496;52.042;6.812;2023-04-07T10:17:04;12.20;99.90
31967;DHT22;18496;52.042;6.812;2023-04-07T10:19:09;12.20;99.90
31967;DHT22;18496;52.042;6.812;2023-04-07T10:21:15;12.20;99.90
31967;DHT22;18496;52.042;6.812;2023-04-07T10:23:25;12.20;99.90
31967;DHT22;18496;52.042;6.812;2023-04-07T10:25:31;12.20;99.90
31967;DHT22;18496;52.042;6.812;2023-04-07T10:27:39;12.20;99.90
31967;DHT22;18496;52.042;6.812;2023-04-07T10:29:47;12.30;99.90
31967;DHT22;18496;52.042;6.812;2023-04-07T10:31:52;12.30;99.90
31967;DHT22;18496;52.042;6.812;2023-04-07T10:33:56;12.30;99.90
31967;DHT22;18496;52.042;6.812;2023-04-07T10:36:06;12.30;99.90
31967;DHT22;18496;52.042;6.812;2023-04-07T10:38:12;12.30;99.90
31967;DHT22;18496;52.042;6.812;2023-04-07T10:49:09;12.50;99.90
31967;DHT22;18496;52.042;6.812;2023-04-07T10:51:14;12.40;99.90
31967;DHT22;18496;52.042;6.812;2023-04-07T10:53:18;12.50;99.90
31967;DHT22;18496;52.042;6.812;2023-04-07T10:57:35;12.40;99.90
31967;DHT22;18496;52.042;6.812;2023-04-07T11:00:13;12.50;99.90
31967;DHT22;18496;52.042;6.812;2023-04-07T11:04:15;12.50;99.90
31967;DHT22;18496;52.042;6.812;2023-04-07T11:06:18;12.40;99.90
31967;DHT22;18496;52.042;6.812;2023-04-07T11:08:36;12.50;99.90
31967;DHT22;18496;52.042;6.812;2023-04-07T11:10:40;12.40;99.90
31967;DHT22;18496;52.042;6.812;2023-04-07T11:13:03;12.40;99.90
31967;DHT22;18496;52.042;6.812;2023-04-07T11:15:20;12.40;99.90
31967;DHT22;18496;52.042;6.812;2023-04-07T11:17:26;12.40;99.90
31967;DHT22;18496;52.042;6.812;2023-04-07T11:19:49;12.50;99.90
31967;DHT22;18496;52.042;6.812;2023-04-07T11:22:12;12.40;99.90
31967;DHT22;18496;52.042;6.812;2023-04-07T11:24:36;12.40;99.90
31967;DHT22;18496;52.042;6.812;2023-04-07T11:26:42;12.40;99.90
31967;DHT22;18496;52.042;6.812;2023-04-07T11:28:52;12.40;99.90
31967;DHT22;18496;52.042;6.812;2023-04-07T11:30:56;12.40;99.90
31967;DHT22;18496;52.042;6.812;2023-04-07T11:33:00;12.30;99.90
31967;DHT22;18496;52.042;6.812;2023-04-07T11:35:07;12.40;99.90
31967;DHT22;18496;52.042;6.812;2023-04-07T11:37:22;12.40;99.90
31967;DHT22;18496;52.042;6.812;2023-04-07T11:39:26;12.40;99.90
31967;DHT22;18496;52.042;6.812;2023-04-07T11:41:45;12.40;99.90
31967;DHT22;18496;52.042;6.812;2023-04-07T11:44:03;12.30;99.90
31967;DHT22;18496;52.042;6.812;2023-04-07T11:46:09;12.40;99.90
31967;DHT22;18496;52.042;6.812;2023-04-07T11:48:30;12.40;99.90
31967;DHT22;18496;52.042;6.812;2023-04-07T11:50:40;12.40;99.90
31967;DHT22;18496;52.042;6.812;2023-04-07T11:52:47;12.40;99.90
31967;DHT22;18496;52.042;6.812;2023-04-07T11:54:51;12.40;99.90
31967;DHT22;18496;52.042;6.812;2023-04-07T11:56:55;12.40;99.90
31967;DHT22;18496;52.042;6.812;2023-04-07T11:58:59;12.40;99.90
31967;DHT22;18496;52.042;6.812;2023-04-07T12:01:05;12.40;99.90
31967;DHT22;18496;52.042;6.812;2023-04-07T12:03:11;12.40;99.90
31967;DHT22;18496;52.042;6.812;2023-04-07T12:05:18;12.40;99.90
31967;DHT22;18496;52.042;6.812;2023-04-07T12:07:22;12.40;99.90
31967;DHT22;18496;52.042;6.812;2023-04-07T12:09:26;12.50;99.90
31967;DHT22;18496;52.042;6.812;2023-04-07T12:11:32;12.50;99.90
31967;DHT22;18496;52.042;6.812;2023-04-07T12:13:36;12.50;99.90
31967;DHT22;18496;52.042;6.812;2023-04-07T12:15:40;12.50;99.90
31967;DHT22;18496;52.042;6.812;2023-04-07T12:17:45;12.50;99.90
31967;DHT22;18496;52.042;6.812;2023-04-07T12:19:49;12.50;99.90
31967;DHT22;18496;52.042;6.812;2023-04-07T12:21:54;12.50;99.90
31967;DHT22;18496;52.042;6.812;2023-04-07T12:23:57;12.50;99.90
31967;DHT22;18496;52.042;6.812;2023-04-07T12:26:01;12.50;99.90
31967;DHT22;18496;52.042;6.812;2023-04-07T12:28:05;12.50;99.90
31967;DHT22;18496;52.042;6.812;2023-04-07T12:30:09;12.60;99.90
31967;DHT22;18496;52.042;6.812;2023-04-07T12:32:13;12.60;99.90
31967;DHT22;18496;52.042;6.812;2023-04-07T12:34:17;12.60;99.90
31967;DHT22;18496;52.042;6.812;2023-04-07T12:36:21;12.60;99.90
31967;DHT22;18496;52.042;6.812;2023-04-07T12:38:25;12.60;99.90
31967;DHT22;18496;52.042;6.812;2023-04-07T12:40:29;12.60;99.90
31967;DHT22;18496;52.042;6.812;2023-04-07T12:42:33;12.60;99.90
31967;DHT22;18496;52.042;6.812;2023-04-07T12:44:38;12.70;99.90
31967;DHT22;18496;52.042;6.812;2023-04-07T12:46:41;12.70;99.90
31967;DHT22;18496;52.042;6.812;2023-04-07T12:48:45;12.70;99.90
31967;DHT22;18496;52.042;6.812;2023-04-07T12:50:50;12.70;99.90
31967;DHT22;18496;52.042;6.812;2023-04-07T12:52:54;12.70;99.90
31967;DHT22;18496;52.042;6.812;2023-04-07T12:54:58;12.70;99.90
31967;DHT22;18496;52.042;6.812;2023-04-07T12:57:02;12.80;99.90
31967;DHT22;18496;52.042;6.812;2023-04-07T12:59:05;12.70;99.90
31967;DHT22;18496;52.042;6.812;2023-04-07T13:01:09;12.70;99.90
31967;DHT22;18496;52.042;6.812;2023-04-07T13:03:13;12.70;99.90
31967;DHT22;18496;52.042;6.812;2023-04-07T13:05:16;12.70;99.90
31967;DHT22;18496;52.042;6.812;2023-04-07T13:07:21;12.70;99.90
31967;DHT22;18496;52.042;6.812;2023-04-07T13:09:24;12.70;99.90
31967;DHT22;18496;52.042;6.812;2023-04-07T13:11:28;12.70;99.90
31967;DHT22;18496;52.042;6.812;2023-04-07T13:13:32;12.70;99.90
31967;DHT22;18496;52.042;6.812;2023-04-07T13:15:36;12.70;99.90
31967;DHT22;18496;52.042;6.812;2023-04-07T13:17:39;12.70;99.90
31967;DHT22;18496;52.042;6.812;2023-04-07T13:19:43;12.70;99.90
31967;DHT22;18496;52.042;6.812;2023-04-07T13:21:49;12.70;99.90
31967;DHT22;18496;52.042;6.812;2023-04-07T13:23:53;12.70;99.90
31967;DHT22;18496;52.042;6.812;2023-04-07T13:25:56;12.70;99.90
31967;DHT22;18496;52.042;6.812;2023-04-07T13:28:00;12.80;99.90
31967;DHT22;18496;52.042;6.812;2023-04-07T13:30:04;12.80;99.90
31967;DHT22;18496;52.042;6.812;2023-04-07T13:32:09;12.80;99.90
31967;DHT22;18496;52.042;6.812;2023-04-07T13:34:15;12.80;99.90
31967;DHT22;18496;52.042;6.812;2023-04-07T13:36:19;12.80;99.90
31967;DHT22;18496;52.042;6.812;2023-04-07T13:38:23;12.80;99.90
31967;DHT22;18496;52.042;6.812;2023-04-07T13:40:27;12.80;99.90
31967;DHT22;18496;52.042;6.812;2023-04-07T13:42:30;12.90;99.90
31967;DHT22;18496;52.042;6.812;2023-04-07T13:44:34;12.90;99.90